CW8593 Gava ES current weather conditions

sailwx.info

Wind from 297

Air temperature 10.6° C
Dewpoint 2.1° C

Last reported at 2016-Feb-08 03:43 UTC.
Time now 2016-Feb-08 04:08 UTC

Location: N 41°18' E 001°60'.
View on Google Maps.

See reports from other nearby stations

  
Tides and Currents Weather Stations Pressure Air Temp Water Temp Dewpoint Dewpoint Depression Visibility Wind Speed Wind Dir Waves Ship Positions
date/time (UTC)wind fromknots sea level pressurealtimeterstation pressurevisibilityair tempwater tempwave heightnotes
2016-Feb-08 03:43 297 10.6
2016-Feb-08 03:38 297 2 gusting 6 10.0
2016-Feb-08 03:28 338 2 gusting 2 8.9
2016-Feb-08 03:13 338 8.9
2016-Feb-08 03:08 017 1 gusting 2 8.9
2016-Feb-08 02:58 017 0 gusting 2 7.8
2016-Feb-08 02:53 017 7.8
2016-Feb-08 02:48 017 7.8
2016-Feb-08 02:33 017 7.8
2016-Feb-08 02:28 017 7.8
2016-Feb-08 02:08 017 8.3
2016-Feb-08 01:48 017 1 gusting 2 8.3
2016-Feb-08 01:43 017 1 gusting 2 8.3
2016-Feb-08 01:33 018 1 gusting 2 8.3
2016-Feb-08 01:28 017 8.3
2016-Feb-08 01:18 336 0 gusting 2 8.3
2016-Feb-08 01:13 336 8.3
2016-Feb-08 00:53 301 0 gusting 4 8.3
2016-Feb-08 00:43 300 8.3
2016-Feb-08 00:28 347 0 gusting 1 8.9
2016-Feb-08 00:23 347 8.9
2016-Feb-08 00:08 347 0 gusting 1 9.4
2016-Feb-08 00:03 347 10.0
2016-Feb-07 23:58 347 10.0
2016-Feb-07 23:53 346 0 gusting 1 10.0
2016-Feb-07 23:38 347 0 gusting 1 10.6
2016-Feb-07 23:23 343 11.1
2016-Feb-07 23:03 343 1 gusting 4 12.2
2016-Feb-07 22:48 295 1 gusting 2 11.7
2016-Feb-07 22:43 291 2 gusting 2 11.7
2016-Feb-07 22:28 284 12.2
2016-Feb-07 22:18 283 3 gusting 7 12.2
2016-Feb-07 22:13 273 12.2
2016-Feb-07 22:08 273 0 gusting 5 12.8
2016-Feb-07 21:48 204 12.2
2016-Feb-07 21:43 204 1 gusting 6 12.8
2016-Feb-07 21:38 191 12.8
2016-Feb-07 21:28 226 5 gusting 10 12.8
2016-Feb-07 21:23 245 3 gusting 6 12.8
2016-Feb-07 21:08 347 5 gusting 10 12.2
2016-Feb-07 20:58 309 5 gusting 11 12.8
2016-Feb-07 20:53 311 8 gusting 21 12.8
2016-Feb-07 20:48 298 11 gusting 19 12.8
2016-Feb-07 20:43 301 11 gusting 17 12.8
2016-Feb-07 20:38 279 12 gusting 19 12.8
2016-Feb-07 20:33 285 16 gusting 25 12.8
2016-Feb-07 20:28 285 13 gusting 20 12.8
2016-Feb-07 20:23 284 11 gusting 17 12.8
2016-Feb-07 20:18 275 13 gusting 20 12.8
2016-Feb-07 20:08 270 12 gusting 19 12.8
2016-Feb-07 19:58 283 8 gusting 21 12.8
2016-Feb-07 19:48 279 12 gusting 18 12.8
2016-Feb-07 19:43 280 8 gusting 15 12.8
2016-Feb-07 19:38 291 6 gusting 17 12.8
2016-Feb-07 19:33 298 6 gusting 13 12.8
2016-Feb-07 19:28 267 7 gusting 17 12.8
2016-Feb-07 19:23 292 6 gusting 17 12.8
2016-Feb-07 19:13 287 6 gusting 19 12.8
2016-Feb-07 18:53 282 10 gusting 19 12.8
2016-Feb-07 18:48 287 8 gusting 13 12.8
2016-Feb-07 18:43 275 6 gusting 12 13.3
2016-Feb-07 18:38 287 11 gusting 22 13.3
2016-Feb-07 18:33 281 7 gusting 19 13.3
2016-Feb-07 18:28 273 8 gusting 17 13.3
2016-Feb-07 18:23 281 7 gusting 14 13.3
2016-Feb-07 18:18 285 8 gusting 19 13.3
2016-Feb-07 18:08 268 6 gusting 21 13.3
2016-Feb-07 18:03 286 10 gusting 21 13.3
2016-Feb-07 17:48 289 4 gusting 10 13.3
2016-Feb-07 17:38 302 6 gusting 13 13.3
2016-Feb-07 17:28 299 2 gusting 18 12.8
2016-Feb-07 17:18 264 1 gusting 7 11.7
2016-Feb-07 17:03 214 11.7
2016-Feb-07 16:58 167 12.2
2016-Feb-07 16:53 167 1 gusting 2 12.2
2016-Feb-07 16:48 167 12.2
2016-Feb-07 16:43 167 12.2
2016-Feb-07 16:28 138 12.2
2016-Feb-07 16:23 138 2 gusting 5 12.2
2016-Feb-07 16:18 221 2 gusting 5 12.2
2016-Feb-07 16:13 236 1 gusting 5 12.2
2016-Feb-07 16:08 236 2 gusting 6 12.2
2016-Feb-07 16:03 172 4 gusting 7 12.2
2016-Feb-07 15:53 187 4 gusting 7 12.2
2016-Feb-07 15:48 167 4 gusting 8 12.2
2016-Feb-07 15:28 206 4 gusting 7 12.2
2016-Feb-07 15:18 186 4 gusting 6 12.2
2016-Feb-07 15:13 134 2 gusting 6 11.7
2016-Feb-07 15:08 141 3 gusting 7 11.7
2016-Feb-07 15:03 126 2 gusting 7 11.7
2016-Feb-07 14:58 150 2 gusting 6 11.7
2016-Feb-07 14:53 154 2 gusting 6 11.7
2016-Feb-07 14:48 160 2 gusting 6 11.7
2016-Feb-07 14:43 090 1 gusting 6 11.1
2016-Feb-07 14:38 153 4 gusting 8 11.1
2016-Feb-07 14:33 124 5 gusting 7 11.1
2016-Feb-07 14:28 126 0 gusting 6 11.1
2016-Feb-07 14:23 100 2 gusting 7 11.1
2016-Feb-07 14:18 127 1 gusting 4 11.1
2016-Feb-07 14:13 159 11.1
2016-Feb-07 14:08 159 4 gusting 6 11.1
2016-Feb-07 13:53 082 3 gusting 10 11.1
2016-Feb-07 13:43 083 6 gusting 10 11.1
2016-Feb-07 13:38 089 2 gusting 10 11.1
2016-Feb-07 13:33 088 4 gusting 10 11.1
2016-Feb-07 13:23 072 6 gusting 13 11.7
2016-Feb-07 13:18 092 7 gusting 13 11.7
2016-Feb-07 13:13 092 5 gusting 13 12.2
2016-Feb-07 13:08 072 6 gusting 13 12.2
2016-Feb-07 13:03 089 2 gusting 11 12.2
2016-Feb-07 12:48 037 3 gusting 6 12.8
2016-Feb-07 12:43 059 2 gusting 7 12.8
2016-Feb-07 12:38 028 4 gusting 11 12.2
2016-Feb-07 12:28 041 6 gusting 12 12.2
2016-Feb-07 12:23 051 6 gusting 11 12.8
2016-Feb-07 12:13 040 2 gusting 8 12.8
2016-Feb-07 12:03 030 1 gusting 6 12.8
2016-Feb-07 11:58 017 3 gusting 6 12.8
2016-Feb-07 11:53 014 2 gusting 8 12.8
2016-Feb-07 11:48 012 3 gusting 6 12.8
2016-Feb-07 11:38 301 2 gusting 10 12.8
2016-Feb-07 11:28 316 5 gusting 11 12.2
2016-Feb-07 11:23 305 6 gusting 12 12.2
2016-Feb-07 11:03 298 2 gusting 11 11.7
2016-Feb-07 10:48 277 7 gusting 12 12.2
2016-Feb-07 10:38 337 4 gusting 10 12.2
2016-Feb-07 10:28 056 1 gusting 6 12.2
2016-Feb-07 10:23 296 3 gusting 6 12.8
2016-Feb-07 10:18 294 1 gusting 2 12.8
2016-Feb-07 10:13 287 2 gusting 8 12.8
2016-Feb-07 09:58 169 0 gusting 6 11.7
2016-Feb-07 09:48 258 4 gusting 10 11.1
2016-Feb-07 09:38 281 2 gusting 4 11.1
2016-Feb-07 09:28 304 5 gusting 10 11.1
2016-Feb-07 09:18 283 6 gusting 17 11.1
2016-Feb-07 09:13 259 2 gusting 6 11.1
2016-Feb-07 09:03 269 11.1
2016-Feb-07 08:53 246 2 gusting 6 11.1
2016-Feb-07 08:48 249 3 gusting 10 11.1
2016-Feb-07 08:43 257 2 gusting 6 11.1
2016-Feb-07 08:38 257 4 gusting 7 11.1
2016-Feb-07 08:33 274 4 gusting 10 11.1
2016-Feb-07 08:28 216 1 gusting 6 11.1
2016-Feb-07 08:23 244 1 gusting 7 11.1
2016-Feb-07 08:18 225 1 gusting 6 11.1
2016-Feb-07 08:13 267 1 gusting 6 11.1
2016-Feb-07 08:08 238 1 gusting 5 11.1
2016-Feb-07 07:53 266 1 gusting 5 11.1
2016-Feb-07 07:38 270 3 gusting 6 11.1
2016-Feb-07 07:33 184 2 gusting 6 11.1
2016-Feb-07 07:23 255 8 gusting 17 11.7
2016-Feb-07 07:18 228 4 gusting 10 11.7
2016-Feb-07 07:03 251 5 gusting 12 11.7
2016-Feb-07 06:53 280 6 gusting 12 12.2
2016-Feb-07 06:48 271 4 gusting 6 12.2
2016-Feb-07 06:38 256 4 gusting 8 12.2
2016-Feb-07 06:33 309 4 gusting 7 12.2
2016-Feb-07 06:23 296 12 gusting 19 12.8
2016-Feb-07 06:13 283 11 gusting 19 12.8
2016-Feb-07 05:58 270 12 gusting 25 12.8
2016-Feb-07 05:48 277 13 gusting 30 12.8
2016-Feb-07 05:43 280 14 gusting 28 12.8
2016-Feb-07 05:33 280 8 gusting 19 12.2
2016-Feb-07 05:28 268 11 gusting 21 12.2
2016-Feb-07 05:18 272 12 gusting 19 12.8
2016-Feb-07 05:13 249 7 gusting 13 12.8
2016-Feb-07 04:43 184 2 gusting 6 12.8
2016-Feb-07 04:28 219 2 gusting 6 12.2
2016-Feb-07 04:23 275 1 gusting 2 12.2
2016-Feb-07 04:13 277 11.7
2016-Feb-07 04:08 277 11.7
2016-Feb-07 04:03 277 11.7
2016-Feb-07 03:48 277 11.1
2016-Feb-07 03:28 277 11.1
2016-Feb-07 03:23 277 11.1
2016-Feb-07 03:18 277 11.1
2016-Feb-07 03:08 277 11.1
2016-Feb-07 02:58 277 11.1
2016-Feb-07 02:53 277 11.1
2016-Feb-07 02:48 277 0 gusting 2 11.1
2016-Feb-07 02:38 276 11.1
2016-Feb-07 02:33 276 11.1
2016-Feb-07 02:18 276 11.1
2016-Feb-07 02:08 276 11.1
2016-Feb-07 02:03 276 11.1
2016-Feb-07 01:43 276 11.1
2016-Feb-07 01:28 276 11.1
2016-Feb-07 01:23 276 11.1
2016-Feb-07 01:13 276 11.1
2016-Feb-07 01:03 276 11.1
2016-Feb-07 00:58 276 11.1
2016-Feb-07 00:53 276 11.1
2016-Feb-07 00:43 276 11.1
2016-Feb-07 00:33 276 11.7
2016-Feb-07 00:28 276 11.7
2016-Feb-07 00:03 276 12.2
2016-Feb-06 23:58 276 12.2
2016-Feb-06 23:48 276 12.2
2016-Feb-06 23:43 276 12.2
2016-Feb-06 23:23 276 12.2
2016-Feb-06 23:13 276 12.2
2016-Feb-06 23:03 276 12.2
2016-Feb-06 22:58 210 0 gusting 2 12.2
2016-Feb-06 22:53 210 0 gusting 2 12.2
2016-Feb-06 22:43 210 12.2
2016-Feb-06 22:23 210 12.2
2016-Feb-06 22:08 210 12.2
2016-Feb-06 21:58 210 12.2
2016-Feb-06 21:53 210 12.2
2016-Feb-06 21:43 210 12.2
2016-Feb-06 21:38 210 0 gusting 1 12.2
2016-Feb-06 21:28 210 12.2
2016-Feb-06 20:58 209 12.2
2016-Feb-06 20:33 209 12.2
2016-Feb-06 20:28 209 12.2
2016-Feb-06 20:18 209 12.2
2016-Feb-06 20:13 209 12.2
2016-Feb-06 20:08 209 12.2
2016-Feb-06 20:03 209 12.2
2016-Feb-06 19:58 209 12.2
2016-Feb-06 19:53 209 12.2
2016-Feb-06 19:48 209 12.2
2016-Feb-06 19:23 209 12.2
2016-Feb-06 19:08 209 12.2
2016-Feb-06 19:03 209 11.7
2016-Feb-06 18:58 209 11.7
2016-Feb-06 18:53 209 11.7
2016-Feb-06 18:43 208 1 gusting 2 11.7
2016-Feb-06 18:28 208 0 gusting 1 11.7
2016-Feb-06 18:08 208 12.2
2016-Feb-06 17:53 208 12.8
2016-Feb-06 17:43 208 0 gusting 1 12.8
2016-Feb-06 17:38 208 12.8
2016-Feb-06 17:33 208 0 gusting 2 12.8
2016-Feb-06 17:08 208 2 gusting 4 12.8
2016-Feb-06 17:03 208 1 gusting 4 12.8
2016-Feb-06 16:58 208 1 gusting 4 12.8
2016-Feb-06 16:53 207 1 gusting 5 12.8
2016-Feb-06 16:23 148 4 gusting 6 12.8
2016-Feb-06 16:13 155 1 gusting 7 12.8
2016-Feb-06 16:08 150 6 gusting 10 12.8
2016-Feb-06 15:58 175 5 gusting 7 12.8
2016-Feb-06 15:48 136 1 gusting 5 13.3
2016-Feb-06 15:28 182 1 gusting 6 13.3
2016-Feb-06 15:23 183 1 gusting 4 13.3
2016-Feb-06 15:18 182 0 gusting 5 13.3
2016-Feb-06 15:03 152 0 gusting 2 13.3
2016-Feb-06 14:58 125 1 gusting 6 13.3
2016-Feb-06 14:43 154 1 gusting 6 13.3
2016-Feb-06 14:18 198 0 gusting 4 13.3
2016-Feb-06 14:13 194 4 gusting 6 13.3
2016-Feb-06 13:58 207 1 gusting 7 13.9
2016-Feb-06 13:53 201 4 gusting 7 13.9
2016-Feb-06 13:48 170 2 gusting 6 13.9
2016-Feb-06 13:38 197 1 gusting 6 14.4
2016-Feb-06 13:33 231 0 gusting 6 13.9
2016-Feb-06 13:28 227 2 gusting 6 13.9
2016-Feb-06 13:23 142 2 gusting 5 13.9
2016-Feb-06 13:08 133 5 gusting 8 14.4
2016-Feb-06 12:53 156 2 gusting 6 14.4
2016-Feb-06 12:48 139 4 gusting 8 14.4
2016-Feb-06 12:38 160 5 gusting 8 14.4
2016-Feb-06 12:33 141 5 gusting 10 14.4
2016-Feb-06 12:28 140 5 gusting 10 14.4
2016-Feb-06 12:23 197 5 gusting 8 14.4
2016-Feb-06 12:13 233 2 gusting 6 14.4
2016-Feb-06 12:08 135 2 gusting 6 14.4
2016-Feb-06 11:58 203 4 gusting 6 14.4
2016-Feb-06 11:53 178 3 gusting 6 14.4
2016-Feb-06 11:43 217 4 gusting 6 13.9
2016-Feb-06 11:38 167 5 gusting 10 13.9
2016-Feb-06 11:08 156 3 gusting 6 13.3
2016-Feb-06 11:03 116 0 gusting 2 13.3
2016-Feb-06 10:58 117 1 gusting 2 13.3
2016-Feb-06 10:53 116 1 gusting 4 13.3
2016-Feb-06 10:48 116 1 gusting 2 13.3
2016-Feb-06 10:43 116 1 gusting 2 13.3
2016-Feb-06 10:33 088 2 gusting 5 12.8
2016-Feb-06 10:28 123 1 gusting 2 12.8
2016-Feb-06 10:23 124 1 gusting 2 12.8
2016-Feb-06 10:18 160 0 gusting 2 12.8
2016-Feb-06 10:13 251 0 gusting 1 12.2
2016-Feb-06 10:08 250 12.2
2016-Feb-06 09:53 250 11.7
2016-Feb-06 09:48 250 11.7
2016-Feb-06 09:43 250 11.1
2016-Feb-06 09:38 250 11.1
2016-Feb-06 09:33 250 11.1
2016-Feb-06 09:28 250 11.1
2016-Feb-06 09:18 250 11.1
2016-Feb-06 09:13 250 11.1
2016-Feb-06 09:03 250 11.1
2016-Feb-06 08:58 250 10.6
2016-Feb-06 08:38 250 10.6
2016-Feb-06 08:33 250 10.6
2016-Feb-06 08:28 250 10.6
2016-Feb-06 08:23 250 10.6
2016-Feb-06 08:13 250 10.0
2016-Feb-06 08:03 250 10.0
2016-Feb-06 07:58 250 10.0
2016-Feb-06 07:43 250 10.0
2016-Feb-06 07:33 250 10.0
2016-Feb-06 07:23 250 9.4
2016-Feb-06 07:13 250 9.4
2016-Feb-06 07:08 250 9.4
2016-Feb-06 07:03 249 9.4
2016-Feb-06 06:48 250 9.4
2016-Feb-06 06:23 250 9.4
2016-Feb-06 06:18 250 0 gusting 1 8.9
2016-Feb-06 06:13 250 8.9
2016-Feb-06 06:08 250 8.9
2016-Feb-06 06:03 250 8.3
2016-Feb-06 05:58 250 8.3
2016-Feb-06 05:53 250 8.9
2016-Feb-06 05:18 250 8.9
2016-Feb-06 05:03 250 8.9
2016-Feb-06 04:58 250 8.9
2016-Feb-06 04:53 249 8.9
2016-Feb-06 04:38 250 8.9
2016-Feb-06 04:18 250 8.9
2016-Feb-06 04:13 250 8.9
2016-Feb-06 04:03 250 8.9